AirNav   Air Wisconsin Up To $57,000 Bonus
 
 491 users online  

9CL6 Valley Children's Hospital Heliport
Madera, California, USA

GOING TO MADERA?


FAA INFORMATION EFFECTIVE 26 MARCH 2020

Location

FAA Identifier: 9CL6
Lat/Long: 36-52-59.6700N 119-48-05.6900W
36-52.994500N 119-48.094833W
36.8832417,-119.8015806
(estimated)
Elevation: 376 ft. / 115 m (estimated)
Variation: 13E (2020)
From city: 10 miles SE of MADERA, CA
Time zone: UTC -7 (UTC -8 during Standard Time)
Zip code: 93720

Heliport Operations

Heliport use: Private use. Permission required prior to landing
Activation date: 10/2004
Control tower: no
ARTCC: OAKLAND CENTER
FSS: RANCHO MURIETA FLIGHT SERVICE STATION
Attendance: CONTINUOUS
Wind indicator: lighted
Segmented circle: no
Lights: H1 & H2 - 123.025; H3 - 138.355.

Heliport Communications

WX ASOS at FAT (8 nm SE): PHONE 559-255-3413
WX AWOS-3 at FCH (9 nm S): 135.225 (559-488-1040)
WX ASOS at MAE (16 nm NW): 134.725 (559-674-1781)

Nearby radio navigation aids

VOR radial/distance  VOR name  Freq  Var
CZQ at fieldCLOVIS VORTAC112.9015E
FRAr200/16.5FRIANT VORTAC115.6017E
VISr318/34.6VISALIA VOR/DME109.4016E
HYPr110/35.1EL NIDO VOR/DME114.2015E

Heliport Services

Fuel available: A
JET A FOR BASED ACFT USE ONLY.

Runway Information

Helipad H1

Dimensions: 48 x 48 ft. / 15 x 15 m
Surface: concrete, in good condition
Runway edge lights: PERI
Latitude: 36-52.994500N
Longitude: 119-48.094833W
Elevation: 376.0 ft.
Traffic pattern: leftleft
Markings: basic, in good condition

Helipad H2

Dimensions: 48 x 48 ft. / 15 x 15 m
Surface: concrete, in good condition
Runway edge lights: PERI
Latitude: 36-52.954667N
Longitude: 119-48.005333W
Elevation: 376.0 ft.
Traffic pattern: leftleft
Markings: basic, in good condition

Helipad H3

Dimensions: 40 x 40 ft. / 12 x 12 m
Surface: concrete, in good condition
Runway edge lights: PERI
Latitude: 36-52.888333N
Longitude: 119-48.000000W
Elevation: 376.0 ft.
Traffic pattern: leftleft
Markings: basic, in good condition

Heliport Ownership and Management from official FAA records

Ownership: Privately-owned
Owner: VALLEY CHILDREN'S HOSPITAL
9300 VALLEY CHILDREN'S PLACE
MADERA, CA 93636-8762
Phone 559-353-3000
Manager: JESSIE HUDGINS
9300 VALLEY CHILDREN'S PLACE
MADERA, CA 93636
Phone (559) 353-5020
EMAIL: JHUDGINS@VALLEYCHIDRENS.ORG

Heliport Operational Statistics

Aircraft based on the field: 1
Helicopters: 1
    

Additional Remarks

FOR CD CTC FRESNO APCH AT 559-487-5405.
MEDICAL

Instrument Procedures

There are no published instrument procedures at 9CL6.

Some nearby airports with instrument procedures:

KFAT - Fresno Yosemite International Airport (8 nm SE)
KFCH - Fresno Chandler Executive Airport (9 nm S)
KMAE - Madera Municipal Airport (16 nm NW)
O32 - Reedley Municipal Airport (21 nm SE)
F34 - Firebaugh Airport (32 nm W)
 
Loc | Ops | Rwys | IFR | FBO | Links
Com | Nav | Svcs | Stats | Notes
Area around 9CL6 (Valley Children's Hospital Heliport)
 
Road maps at: MapQuest Bing Google
 
Aerial photo
No photo
 
Sectional chart

 
Airport distance calculator
Flying to Valley Children's Hospital Heliport? Find the distance to fly.

From to 9CL6

Sunrise and sunset
Times for 09-Apr-2020
 Local
(UTC-7)
 Zulu
(UTC)
Morning civil twilight06:0613:06
Sunrise06:3313:33
Sunset19:2802:28
Evening civil twilight19:5502:55

Current date and time
Zulu (UTC)  10-Apr-2020 05:24:18
Local (UTC-7)  09-Apr-2020 22:24:18
 
METAR
KFAT 
7nm SE 
100453Z 19004KT 10SM BKN200 13/07 A3007 RMK AO2 SLP182 T01330067
KFCH 
10nm S 
100455Z AUTO 00000KT 10SM CLR 13/09 A3008 RMK A01
KMAE 
16nm W 
100453Z AUTO 13004KT 10SM CLR 12/08 A3007 RMK AO2 SLP182 T01220083
TAF
KFAT 
7nm SE 
091723Z 0918/1018 14012KT P6SM SCT010 OVC050 FM092000 14006KT P6SM SCT020 OVC050 FM100100 VRB03KT P6SM OVC050
NOTAMs
Click for the latest NOTAMs
NOTAMs are issued by the DoD/FAA and will open in a separate window not controlled by AirNav.

 

 
 

Would you like to see your business listed on this page?

 If your business provides an interesting product or service to pilots, flight crews, aircraft, or users of the Valley Children's Hospital Heliport, you should consider listing it here.  To start the listing process, click on the button below
 
Add a business
 

Other Pages about Valley Children's Hospital Heliport

Update a link
 
Copyright © AirNav, LLC. All rights reserved. Privacy Policy  Contact